createdAt,value
2022-11-26T00:01:24.673Z,24.27
2022-11-26T00:03:53.334Z,27.90
2022-11-26T00:06:34.651Z,23.65
2022-11-26T00:09:04.042Z,23.17
2022-11-26T00:11:31.421Z,20.88
2022-11-26T00:13:58.753Z,22.70
2022-11-26T00:16:26.832Z,26.37
2022-11-26T00:18:54.186Z,24.00
2022-11-26T00:21:24.198Z,22.05
2022-11-26T00:23:52.693Z,26.73
2022-11-26T00:26:21.837Z,24.83
2022-11-26T00:29:00.034Z,26.42
2022-11-26T00:31:28.554Z,27.50
2022-11-26T00:33:56.483Z,27.48
2022-11-26T00:36:26.497Z,23.80
2022-11-26T00:38:57.040Z,22.25
2022-11-26T00:41:25.862Z,28.65
2022-11-26T00:43:53.197Z,25.30
2022-11-26T00:46:21.840Z,23.35
2022-11-26T00:48:49.228Z,27.10
2022-11-26T00:51:19.676Z,24.17
2022-11-26T00:53:48.077Z,27.23
2022-11-26T00:56:20.317Z,21.62
2022-11-26T00:58:49.385Z,23.12
2022-11-26T01:01:19.477Z,24.15
2022-11-26T01:03:47.120Z,23.05
2022-11-26T01:06:18.681Z,23.83
2022-11-26T01:08:46.789Z,25.17
2022-11-26T01:11:16.766Z,25.15
2022-11-26T01:13:45.686Z,24.70
2022-11-26T01:16:19.173Z,23.62
2022-11-26T01:18:48.309Z,25.88
2022-11-26T01:21:15.870Z,25.80
2022-11-26T01:23:43.188Z,28.12
2022-11-26T01:26:16.594Z,22.45
2022-11-26T01:28:44.991Z,25.30
2022-11-26T01:31:27.159Z,25.65
2022-11-26T01:33:55.284Z,21.95
2022-11-26T01:36:29.078Z,24.15
2022-11-26T01:38:59.396Z,23.80
2022-11-26T01:41:48.323Z,23.40
2022-11-26T01:44:21.802Z,22.08
2022-11-26T01:46:51.550Z,22.98
2022-11-26T01:49:23.834Z,23.58
2022-11-26T01:52:20.639Z,26.12
2022-11-26T01:54:48.830Z,21.95
2022-11-26T01:57:22.455Z,23.30
2022-11-26T01:59:52.969Z,22.45
2022-11-26T02:02:22.352Z,20.62
2022-11-26T02:04:58.778Z,19.85
2022-11-26T02:07:26.086Z,22.98
2022-11-26T02:09:53.749Z,23.02
2022-11-26T02:12:21.206Z,20.00
2022-11-26T02:14:48.618Z,20.85
2022-11-26T02:17:21.995Z,22.02
2022-11-26T02:20:16.740Z,21.70
2022-11-26T02:22:50.517Z,22.30
2022-11-26T02:25:36.509Z,23.10
2022-11-26T02:28:20.833Z,22.87
2022-11-26T02:31:17.303Z,24.95
2022-11-26T02:34:22.865Z,23.50
2022-11-26T02:36:52.502Z,24.05
2022-11-26T02:39:26.208Z,21.52
2022-11-26T02:41:55.971Z,21.10
2022-11-26T02:44:31.734Z,19.48
2022-11-26T02:47:03.050Z,18.20
2022-11-26T02:49:31.321Z,18.98
2022-11-26T02:52:00.695Z,18.92
2022-11-26T02:54:29.631Z,19.42
2022-11-26T02:56:58.345Z,20.92
2022-11-26T02:59:26.198Z,20.70
2022-11-26T03:02:26.035Z,22.58
2022-11-26T03:04:57.244Z,20.40
2022-11-26T03:07:25.864Z,20.52
2022-11-26T03:09:55.471Z,20.17
2022-11-26T03:12:23.205Z,19.77
2022-11-26T03:14:50.877Z,20.25
2022-11-26T03:17:18.506Z,22.35
2022-11-26T03:19:46.784Z,21.48
2022-11-26T03:22:15.308Z,23.40
2022-11-26T03:24:43.341Z,22.08
2022-11-26T03:27:11.020Z,22.60
2022-11-26T03:29:38.551Z,21.83
2022-11-26T03:32:06.167Z,23.00
2022-11-26T03:34:33.879Z,25.20
2022-11-26T03:37:01.213Z,22.37
2022-11-26T03:39:28.564Z,21.87
2022-11-26T03:41:57.397Z,22.60
2022-11-26T03:44:24.732Z,21.00
2022-11-26T03:46:52.056Z,21.10
2022-11-26T03:49:19.651Z,19.37
2022-11-26T03:51:46.969Z,20.77
2022-11-26T03:54:14.670Z,19.05
2022-11-26T03:56:42.311Z,20.25
2022-11-26T03:59:09.707Z,22.20
2022-11-26T04:01:37.087Z,21.45
2022-11-26T04:04:04.791Z,19.90
2022-11-26T04:06:32.179Z,20.77
2022-11-26T04:08:59.505Z,20.95
2022-11-26T04:11:27.107Z,21.23
2022-11-26T04:13:54.448Z,20.08
2022-11-26T04:16:21.927Z,21.70
2022-11-26T04:18:49.630Z,20.27
2022-11-26T04:21:16.967Z,21.23
2022-11-26T04:23:44.382Z,20.75
2022-11-26T04:26:11.976Z,21.02
2022-11-26T04:28:39.377Z,21.00
2022-11-26T04:31:06.705Z,21.90
2022-11-26T04:33:34.321Z,22.37
2022-11-26T04:36:02.053Z,20.02
2022-11-26T04:38:29.388Z,21.75
2022-11-26T04:40:56.981Z,22.02
2022-11-26T04:43:24.328Z,21.25
2022-11-26T04:45:51.767Z,20.50
2022-11-26T04:48:19.743Z,21.35
2022-11-26T04:50:47.331Z,24.45
2022-11-26T04:53:14.688Z,20.40
2022-11-26T04:55:42.466Z,20.00
2022-11-26T04:58:09.806Z,20.45
2022-11-26T05:00:37.367Z,21.23
2022-11-26T05:03:05.424Z,20.35
2022-11-26T05:05:32.774Z,19.10
2022-11-26T05:08:00.165Z,18.83
2022-11-26T05:10:27.807Z,18.70
2022-11-26T05:12:55.119Z,19.37
2022-11-26T05:15:22.486Z,23.17
2022-11-26T05:17:50.096Z,24.65
2022-11-26T05:20:17.435Z,27.15
2022-11-26T05:22:44.783Z,23.35
2022-11-26T05:25:12.391Z,25.40
2022-11-26T05:27:39.789Z,21.00
2022-11-26T05:30:07.999Z,20.55
2022-11-26T05:32:35.628Z,20.23
2022-11-26T05:35:03.383Z,20.67
2022-11-26T05:37:30.706Z,20.42
2022-11-26T05:39:58.293Z,20.65
2022-11-26T05:42:25.628Z,20.15
2022-11-26T05:44:52.961Z,18.23
2022-11-26T05:47:20.542Z,19.08
2022-11-26T05:49:47.893Z,20.65
2022-11-26T05:52:15.205Z,18.00
2022-11-26T05:54:42.864Z,18.90
2022-11-26T05:57:10.842Z,17.65
2022-11-26T05:59:38.162Z,19.55
2022-11-26T06:02:05.924Z,18.50
2022-11-26T06:04:33.666Z,18.92
2022-11-26T06:07:00.992Z,21.42
2022-11-26T06:09:28.330Z,18.55
2022-11-26T06:11:55.925Z,18.90
2022-11-26T06:14:23.229Z,19.40
2022-11-26T06:16:50.648Z,18.62
2022-11-26T06:19:18.312Z,18.20
2022-11-26T06:21:45.764Z,22.48
2022-11-26T06:24:13.097Z,25.25
2022-11-26T06:26:40.832Z,23.67
2022-11-26T06:29:08.161Z,25.50
2022-11-26T06:31:35.597Z,20.48
2022-11-26T06:34:03.279Z,21.33
2022-11-26T06:36:30.677Z,22.92
2022-11-26T06:38:58.143Z,17.83
2022-11-26T06:41:25.756Z,19.45
2022-11-26T06:43:53.111Z,18.58
2022-11-26T06:46:20.467Z,19.27
2022-11-26T06:48:48.089Z,18.70
2022-11-26T06:51:16.136Z,17.15
2022-11-26T06:53:43.642Z,20.48
2022-11-26T06:56:18.071Z,18.48
2022-11-26T06:58:47.354Z,17.90
2022-11-26T07:01:20.641Z,17.95
2022-11-26T07:03:48.102Z,21.60
2022-11-26T07:06:23.906Z,20.50
2022-11-26T07:08:52.363Z,21.40
2022-11-26T07:11:20.805Z,23.17
2022-11-26T07:13:48.140Z,18.45
2022-11-26T07:16:15.897Z,18.90
2022-11-26T07:18:47.914Z,20.85
2022-11-26T07:21:15.253Z,19.37
2022-11-26T07:23:42.602Z,20.02
2022-11-26T07:26:11.527Z,17.92
2022-11-26T07:28:39.063Z,18.00
2022-11-26T07:31:15.853Z,20.73
2022-11-26T07:33:45.660Z,19.95
2022-11-26T07:36:19.170Z,20.58
2022-11-26T07:38:47.077Z,20.35
2022-11-26T07:41:17.544Z,22.20
2022-11-26T07:43:45.146Z,19.20
2022-11-26T07:46:15.146Z,21.60
2022-11-26T07:48:42.879Z,21.08
2022-11-26T07:51:22.720Z,19.85
2022-11-26T07:53:51.448Z,18.35
2022-11-26T07:56:18.891Z,23.95
2022-11-26T07:58:46.598Z,25.52
2022-11-26T08:01:19.599Z,18.92
2022-11-26T08:03:48.859Z,18.90
2022-11-26T08:06:21.658Z,20.62
2022-11-26T08:08:49.536Z,36.95
2022-11-26T08:11:24.769Z,35.40
2022-11-26T08:13:54.632Z,54.88
2022-11-26T08:16:22.208Z,24.58
2022-11-26T08:18:53.711Z,16.70
2022-11-26T08:21:21.714Z,15.15
2022-11-26T08:23:49.131Z,36.38
2022-11-26T08:26:36.168Z,18.05
2022-11-26T08:29:05.345Z,18.45
2022-11-26T08:31:33.002Z,20.45
2022-11-26T08:34:01.515Z,19.30
2022-11-26T08:36:30.328Z,19.80
2022-11-26T08:38:58.212Z,25.05
2022-11-26T08:41:25.539Z,18.12
2022-11-26T08:44:09.077Z,17.50
2022-11-26T08:46:37.769Z,18.75
2022-11-26T08:49:06.289Z,19.95
2022-11-26T08:51:33.876Z,19.80
2022-11-26T08:54:07.301Z,21.45
2022-11-26T08:56:34.897Z,19.33
2022-11-26T08:59:02.781Z,22.17
2022-11-26T09:01:32.523Z,22.92
2022-11-26T09:04:05.424Z,21.27
2022-11-26T09:06:36.693Z,23.38
2022-11-26T09:09:14.277Z,22.00
2022-11-26T09:11:51.471Z,21.42
2022-11-26T09:14:22.916Z,20.52
2022-11-26T09:16:50.457Z,21.12
2022-11-26T09:19:18.123Z,19.92
2022-11-26T09:21:46.320Z,20.30
2022-11-26T09:24:14.421Z,20.95
2022-11-26T09:26:41.786Z,19.08
2022-11-26T09:29:13.365Z,20.90
2022-11-26T09:32:00.639Z,20.85
2022-11-26T09:34:28.758Z,22.20
2022-11-26T09:36:56.285Z,20.35
2022-11-26T09:39:23.618Z,20.75
2022-11-26T09:42:00.291Z,19.95
2022-11-26T09:44:40.241Z,20.95
2022-11-26T09:47:20.450Z,18.67
2022-11-26T09:50:03.075Z,20.27
2022-11-26T09:52:35.912Z,18.17
2022-11-26T09:55:15.320Z,18.17
2022-11-26T09:58:16.417Z,19.17
2022-11-26T10:00:46.241Z,19.75
2022-11-26T10:03:25.029Z,20.52
2022-11-26T10:06:08.796Z,20.33
2022-11-26T10:09:14.790Z,22.15
2022-11-26T10:12:10.914Z,19.40
2022-11-26T10:14:56.061Z,19.77
2022-11-26T10:17:34.804Z,19.15
2022-11-26T10:20:30.151Z,19.65
2022-11-26T10:23:03.178Z,17.90
2022-11-26T10:25:34.850Z,19.25
2022-11-26T10:28:03.597Z,18.98
2022-11-26T10:30:32.860Z,18.70
2022-11-26T10:33:01.036Z,18.35
2022-11-26T10:35:29.753Z,19.00
2022-11-26T10:37:58.056Z,18.60
2022-11-26T10:40:30.528Z,18.92
2022-11-26T10:43:09.853Z,18.48
2022-11-26T10:45:41.006Z,19.73
2022-11-26T10:48:32.715Z,18.77
2022-11-26T10:51:16.570Z,19.65
2022-11-26T10:54:04.659Z,17.92
2022-11-26T10:56:53.488Z,18.73
2022-11-26T10:59:30.370Z,19.08
2022-11-26T11:02:05.880Z,19.70
2022-11-26T11:04:39.433Z,25.12
2022-11-26T11:07:47.107Z,20.40
2022-11-26T11:10:18.214Z,19.58
2022-11-26T11:13:11.993Z,18.27
2022-11-26T11:15:41.085Z,18.27
2022-11-26T11:18:20.181Z,17.85
2022-11-26T11:20:58.078Z,19.08
2022-11-26T11:23:45.676Z,17.10
2022-11-26T11:26:21.946Z,18.98
2022-11-26T11:28:54.336Z,21.08
2022-11-26T11:31:26.148Z,20.52
2022-11-26T11:34:12.978Z,21.55
2022-11-26T11:36:40.560Z,21.05
2022-11-26T11:39:28.295Z,19.05
2022-11-26T11:41:56.502Z,20.92
2022-11-26T11:44:36.006Z,21.60
2022-11-26T11:47:09.761Z,21.02
2022-11-26T11:50:04.648Z,21.42
2022-11-26T11:52:45.411Z,22.95
2022-11-26T11:55:49.724Z,20.62
2022-11-26T11:58:45.703Z,17.05
2022-11-26T12:01:15.608Z,18.30
2022-11-26T12:03:56.323Z,18.08
2022-11-26T12:06:49.063Z,19.95
2022-11-26T12:09:52.240Z,19.02
2022-11-26T12:12:44.574Z,18.80
2022-11-26T12:15:34.813Z,17.60
2022-11-26T12:18:21.791Z,16.95
2022-11-26T12:21:19.764Z,19.00
2022-11-26T12:24:07.536Z,19.55
2022-11-26T12:26:48.123Z,17.50
2022-11-26T12:29:46.521Z,17.40
2022-11-26T12:32:23.423Z,19.33
2022-11-26T12:34:53.221Z,19.83
2022-11-26T12:37:24.306Z,17.23
2022-11-26T12:39:58.399Z,19.58
2022-11-26T12:42:42.046Z,20.45
2022-11-26T12:45:19.738Z,19.02
2022-11-26T12:47:55.405Z,17.52
2022-11-26T12:50:59.417Z,19.33
2022-11-26T12:53:52.611Z,19.25
2022-11-26T12:56:32.405Z,17.25
2022-11-26T12:59:33.680Z,18.12
2022-11-26T13:02:28.737Z,20.00
2022-11-26T13:04:57.186Z,18.55
2022-11-26T13:07:43.519Z,18.70
2022-11-26T13:10:43.828Z,18.50
2022-11-26T13:13:19.739Z,21.02
2022-11-26T13:16:00.074Z,21.58
2022-11-26T13:18:32.051Z,22.10
2022-11-26T13:21:14.607Z,20.35
2022-11-26T13:24:19.069Z,21.50
2022-11-26T13:27:17.726Z,20.60
2022-11-26T13:29:55.232Z,20.33
2022-11-26T13:33:01.784Z,20.20
2022-11-26T13:35:47.743Z,20.12
2022-11-26T13:38:15.268Z,19.10
2022-11-26T13:40:58.949Z,20.48
2022-11-26T13:44:11.792Z,21.10
2022-11-26T13:46:43.394Z,25.33
2022-11-26T13:49:34.490Z,20.40
2022-11-26T13:52:24.750Z,21.85
2022-11-26T13:55:22.467Z,21.27
2022-11-26T13:57:54.070Z,24.25
2022-11-26T14:00:32.821Z,21.52
2022-11-26T14:03:01.941Z,20.92
2022-11-26T14:05:51.986Z,22.20
2022-11-26T14:08:33.380Z,20.52
2022-11-26T14:11:00.981Z,26.17
2022-11-26T14:13:28.650Z,22.85
2022-11-26T14:15:59.151Z,22.08
2022-11-26T14:19:02.892Z,25.02
2022-11-26T14:21:30.672Z,22.62
2022-11-26T14:23:59.625Z,25.40
2022-11-26T14:26:30.551Z,23.23
2022-11-26T14:29:11.601Z,22.77
2022-11-26T14:31:59.166Z,23.08
2022-11-26T14:34:31.173Z,21.55
2022-11-26T14:37:00.060Z,21.05
2022-11-26T14:39:28.702Z,22.05
2022-11-26T14:42:04.047Z,21.67
2022-11-26T14:44:33.503Z,24.25
2022-11-26T14:47:08.734Z,24.85
2022-11-26T14:49:39.623Z,22.62
2022-11-26T14:52:22.298Z,23.95
2022-11-26T14:54:56.565Z,23.52
2022-11-26T14:57:26.941Z,23.12
2022-11-26T14:59:55.626Z,22.50
2022-11-26T15:02:24.645Z,23.73
2022-11-26T15:05:21.004Z,24.63
2022-11-26T15:08:04.816Z,24.60
2022-11-26T15:10:51.502Z,24.33
2022-11-26T15:13:39.929Z,23.55
2022-11-26T15:16:26.173Z,23.98
2022-11-26T15:18:54.241Z,23.92
2022-11-26T15:21:23.997Z,22.70
2022-11-26T15:23:52.263Z,24.52
2022-11-26T15:26:24.403Z,22.95
2022-11-26T15:28:51.886Z,23.75
2022-11-26T15:31:19.323Z,22.65
2022-11-26T15:33:47.192Z,24.75
2022-11-26T15:36:17.807Z,24.95
2022-11-26T15:39:08.884Z,23.55
2022-11-26T15:41:42.466Z,26.23
2022-11-26T15:44:21.732Z,22.23
2022-11-26T15:46:51.865Z,25.55
2022-11-26T15:49:22.785Z,28.70
2022-11-26T15:51:53.996Z,28.15
2022-11-26T15:54:30.813Z,27.45
2022-11-26T15:57:28.560Z,28.95
2022-11-26T15:59:59.416Z,31.12
2022-11-26T16:02:28.291Z,29.40
2022-11-26T16:04:57.995Z,26.62
2022-11-26T16:07:30.901Z,26.77
2022-11-26T16:10:16.596Z,24.65
2022-11-26T16:12:46.797Z,22.95
2022-11-26T16:15:19.560Z,20.02
2022-11-26T16:17:48.017Z,20.75
2022-11-26T16:20:24.580Z,25.05
2022-11-26T16:22:56.043Z,23.98
2022-11-26T16:25:33.476Z,23.42
2022-11-26T16:28:12.359Z,25.30
2022-11-26T16:30:43.484Z,23.23
2022-11-26T16:33:11.159Z,22.60
2022-11-26T16:35:47.357Z,23.23
2022-11-26T16:38:20.828Z,23.85
2022-11-26T16:40:48.384Z,27.70
2022-11-26T16:43:15.978Z,29.12
2022-11-26T16:45:43.652Z,31.70
2022-11-26T16:48:24.341Z,26.98
2022-11-26T16:50:53.944Z,28.08
2022-11-26T16:53:21.769Z,27.80
2022-11-26T16:55:50.289Z,27.30
2022-11-26T16:58:28.172Z,28.92
2022-11-26T17:00:56.740Z,24.73
2022-11-26T17:03:27.840Z,25.65
2022-11-26T17:05:56.963Z,26.17
2022-11-26T17:08:24.604Z,25.92
2022-11-26T17:10:52.668Z,26.45
2022-11-26T17:13:20.662Z,27.87
2022-11-26T17:15:49.229Z,22.08
2022-11-26T17:18:22.369Z,22.45
2022-11-26T17:20:50.877Z,20.10
2022-11-26T17:23:18.914Z,20.45
2022-11-26T17:25:50.952Z,22.33
2022-11-26T17:28:21.016Z,26.62
2022-11-26T17:30:48.756Z,26.67
2022-11-26T17:33:16.489Z,24.73
2022-11-26T17:35:44.088Z,24.27
2022-11-26T17:38:17.880Z,26.60
2022-11-26T17:40:46.844Z,26.37
2022-11-26T17:43:14.952Z,26.45
2022-11-26T17:45:42.819Z,29.27
2022-11-26T17:48:13.220Z,27.98
2022-11-26T17:50:41.665Z,29.05
2022-11-26T17:53:09.077Z,32.35
2022-11-26T17:55:36.688Z,29.70
2022-11-26T17:58:04.229Z,26.40
2022-11-26T18:00:31.995Z,35.78
2022-11-26T18:02:59.854Z,27.52
2022-11-26T18:05:27.341Z,42.60
2022-11-26T18:07:54.781Z,26.35
2022-11-26T18:10:23.256Z,22.73
2022-11-26T18:12:53.401Z,22.73
2022-11-26T18:15:23.759Z,22.67
2022-11-26T18:17:54.713Z,23.27
2022-11-26T18:20:24.923Z,25.70
2022-11-26T18:22:58.806Z,32.90
2022-11-26T18:25:27.900Z,26.45
2022-11-26T18:27:55.667Z,23.10
2022-11-26T18:30:24.324Z,28.10
2022-11-26T18:32:52.880Z,31.92
2022-11-26T18:35:21.037Z,31.02
2022-11-26T18:37:48.804Z,24.30
2022-11-26T18:40:17.478Z,24.25
2022-11-26T18:42:45.490Z,24.30
2022-11-26T18:45:15.105Z,23.62
2022-11-26T18:47:42.659Z,27.60
2022-11-26T18:50:10.818Z,27.45
2022-11-26T18:52:38.858Z,27.42
2022-11-26T18:55:08.295Z,25.25
2022-11-26T18:57:36.850Z,24.92
2022-11-26T19:00:05.861Z,26.95
2022-11-26T19:02:36.719Z,23.75
2022-11-26T19:05:05.189Z,28.35
2022-11-26T19:07:33.226Z,26.35
2022-11-26T19:10:02.268Z,26.27
2022-11-26T19:12:30.181Z,22.55
2022-11-26T19:14:58.251Z,24.30
2022-11-26T19:17:25.787Z,26.08
2022-11-26T19:19:53.872Z,25.80
2022-11-26T19:22:21.483Z,24.65
2022-11-26T19:24:48.933Z,25.00
2022-11-26T19:27:17.459Z,24.80
2022-11-26T19:29:45.437Z,25.52
2022-11-26T19:32:13.173Z,28.48
2022-11-26T19:34:41.704Z,30.70
2022-11-26T19:37:09.674Z,30.98
2022-11-26T19:39:39.075Z,34.65
2022-11-26T19:42:07.492Z,32.83
2022-11-26T19:44:35.912Z,30.77
2022-11-26T19:47:04.014Z,31.27
2022-11-26T19:49:32.341Z,26.58
2022-11-26T19:52:00.372Z,26.77
2022-11-26T19:54:28.304Z,26.23
2022-11-26T19:56:56.423Z,28.23
2022-11-26T19:59:24.391Z,26.67
2022-11-26T20:01:52.362Z,27.27
2022-11-26T20:04:20.140Z,25.50
2022-11-26T20:06:48.118Z,26.23
2022-11-26T20:09:17.725Z,24.40
2022-11-26T20:11:46.596Z,25.33
2022-11-26T20:14:14.953Z,26.10
2022-11-26T20:16:45.044Z,24.27
2022-11-26T20:19:13.702Z,24.33
2022-11-26T20:21:42.726Z,41.35
2022-11-26T20:24:16.548Z,30.95
2022-11-26T20:26:47.452Z,24.48
2022-11-26T20:29:17.390Z,24.08
2022-11-26T20:31:47.320Z,21.42
2022-11-26T20:34:19.964Z,23.67
2022-11-26T20:36:48.659Z,25.77
2022-11-26T20:39:22.353Z,25.17
2022-11-26T20:41:50.638Z,25.25
2022-11-26T20:44:18.643Z,22.80
2022-11-26T20:46:46.174Z,23.30
2022-11-26T20:49:16.271Z,21.30
2022-11-26T20:51:44.267Z,21.92
2022-11-26T20:54:12.340Z,22.30
2022-11-26T20:56:40.528Z,30.83
2022-11-26T20:59:09.766Z,36.38
2022-11-26T21:01:38.045Z,27.85
2022-11-26T21:04:07.259Z,30.73
2022-11-26T21:06:35.442Z,33.53
2022-11-26T21:09:04.825Z,30.65
2022-11-26T21:11:32.431Z,26.23
2022-11-26T21:14:01.520Z,28.27
2022-11-26T21:16:29.648Z,27.45
2022-11-26T21:18:57.774Z,25.95
2022-11-26T21:21:26.994Z,25.62
2022-11-26T21:23:54.461Z,26.45
2022-11-26T21:26:24.500Z,27.75
2022-11-26T21:28:53.061Z,25.17
2022-11-26T21:31:21.153Z,25.40
2022-11-26T21:33:55.307Z,25.88
2022-11-26T21:36:23.290Z,24.65
2022-11-26T21:38:50.906Z,25.65
2022-11-26T21:41:19.940Z,23.77
2022-11-26T21:43:47.951Z,25.48
2022-11-26T21:46:18.672Z,24.58
2022-11-26T21:48:46.465Z,25.10
2022-11-26T21:51:16.042Z,26.12
2022-11-26T21:53:43.901Z,23.70
2022-11-26T21:56:15.938Z,23.17
2022-11-26T21:58:43.854Z,23.98
2022-11-26T22:01:16.456Z,23.90
2022-11-26T22:03:45.428Z,22.70
2022-11-26T22:06:13.514Z,23.80
2022-11-26T22:08:41.724Z,24.45
2022-11-26T22:11:11.606Z,21.98
2022-11-26T22:13:39.617Z,21.58
2022-11-26T22:16:07.759Z,21.95
2022-11-26T22:18:37.374Z,22.25
2022-11-26T22:21:10.097Z,19.90
2022-11-26T22:23:37.729Z,20.67
2022-11-26T22:26:05.142Z,20.52
2022-11-26T22:28:32.536Z,20.50
2022-11-26T22:31:21.224Z,21.65
2022-11-26T22:33:49.446Z,20.52
2022-11-26T22:36:19.470Z,19.23
2022-11-26T22:38:47.578Z,19.58
2022-11-26T22:41:15.211Z,19.55
2022-11-26T22:43:42.981Z,18.85
2022-11-26T22:46:18.762Z,19.48
2022-11-26T22:48:54.306Z,20.48
2022-11-26T22:51:22.287Z,18.87
2022-11-26T22:53:54.715Z,18.15
2022-11-26T22:56:22.833Z,19.08
2022-11-26T22:58:50.514Z,18.65
2022-11-26T23:01:28.582Z,17.00
2022-11-26T23:03:57.247Z,17.75
2022-11-26T23:06:25.987Z,17.77
2022-11-26T23:08:54.980Z,17.45
2022-11-26T23:11:25.380Z,17.95
2022-11-26T23:13:53.446Z,16.80
2022-11-26T23:16:24.120Z,17.02
2022-11-26T23:18:53.132Z,15.90
2022-11-26T23:21:34.449Z,16.58
2022-11-26T23:24:02.041Z,15.93
2022-11-26T23:26:31.428Z,16.70
2022-11-26T23:29:00.260Z,16.73
2022-11-26T23:31:32.316Z,17.10
2022-11-26T23:34:00.197Z,16.83
2022-11-26T23:36:28.921Z,16.85
2022-11-26T23:38:56.664Z,16.27
2022-11-26T23:41:23.982Z,16.55
2022-11-26T23:43:51.572Z,15.90
2022-11-26T23:46:21.670Z,15.93
2022-11-26T23:48:49.131Z,15.63
2022-11-26T23:51:27.968Z,16.98
2022-11-26T23:53:55.463Z,20.98
2022-11-26T23:56:28.500Z,21.75
2022-11-26T23:59:01.604Z,23.08
